KWJF Airport (General Wm J Fox Airfield) Information

FAA: WJF - ICAO: KWJF

KWJF Airport Location

State California
County Los Angeles
City Lancaster
KWJF Airport is 4 miles northwest of Lancaster, CA.
Latitude 34-44-27.8000N
Longitude 118-13-07.1000W
Elevation 2,350ft

KWJF Airport METARs

METAR KWJF 180656Z AUTO 27014KT 10SM CLR 12/04 A2994 RMK AO2 SLP129 T01170039
Altimeter 29.94"
Temperature 11.7°C (53.1°F)
Wind 270° at 14KT
Clouds Skies are clear.
Visibility 10.0mi
Time observed: 2021-10-18T06:56:00Z

KWJF Airport Details

Status Operational
Activation November 1959
Ownership Public
Usage Public
Chart LOS ANGELES
ATC on-site Yes
Beacon schedule sunset-sunrise
Beacon color clear green

KWJF Airport Contacts

Owner CO OF LOS ANGELES
Owner address PO BOX 1460, ALHAMBRA, CA 91802-1460
Owner phone (626) 300-4602
Manager ERIC TSCHARANYAN
Manager address 3235 N. LAKEWOOD BLVD, LONG BEACH, CA 90808
Manager phone 562-421-2701

KWJF Airport (General Wm J Fox Airfield) Radio Frequencies

KWJF (Airport) Radio Frequencies

UNICOM 122.95
Common traffic advisory frequency (CTAF) 118.525